EDT,Max TemperatureF,Mean TemperatureF,Min TemperatureF,Max Dew PointF,MeanDew PointF,Min DewpointF,Max Humidity, Mean Humidity, Min Humidity, Max Sea Level PressureIn, Mean Sea Level PressureIn, Min Sea Level PressureIn, Max VisibilityMiles, Mean VisibilityMiles, Min VisibilityMiles, Max Wind SpeedMPH, Mean Wind SpeedMPH, Max Gust SpeedMPH,PrecipitationIn, CloudCover, Events, WindDirDegrees
2012-9-1,75,65,55,59,56,54,100,67,50,30.15,30.11,30.08,15,15,15,8,3,,0.00,2,,73
2012-9-2,77,67,57,57,55,52,94,62,41,30.11,30.09,30.07,15,15,15,8,2,,0.00,4,,74
2012-9-3,82,66,51,63,57,48,88,59,42,30.14,30.07,29.97,15,15,15,13,6,,0.00,4,,96
2012-9-4,75,70,66,70,67,64,100,87,73,29.98,29.91,29.85,15,12,6,8,4,,0.00,8,Rain,112
2012-9-5,80,71,62,68,66,63,100,78,58,29.87,29.83,29.79,15,14,12,12,6,,0.00,4,,276
2012-9-6,82,73,60,68,62,55,100,73,45,29.83,29.80,29.76,15,12,6,14,9,21,0.00,4,Rain,303
2012-9-7,75,62,50,63,58,50,100,71,47,29.91,29.87,29.81,15,14,12,9,4,,0.00,7,Rain,278
2012-9-8,68,62,55,66,62,52,100,95,88,29.60,29.43,29.30,15,7,1,20,9,33,0.00,8,Rain-Thunderstorm,283
2012-9-9,64,53,42,50,48,43,100,71,55,29.94,29.89,29.83,15,15,15,13,7,18,0.00,4,,284
2012-9-10,62,55,48,48,45,41,93,69,45,30.14,30.11,30.05,15,15,15,9,6,,0.00,4,,324
2012-9-11,73,56,39,54,49,39,100,63,43,30.23,30.18,30.13,15,15,15,10,4,,0.00,2,,224
2012-9-12,80,65,50,63,57,50,100,65,48,30.24,30.21,30.16,15,15,15,15,7,22,0.00,1,,198
2012-9-13,82,65,48,63,60,48,100,66,45,30.25,30.20,30.14,15,15,15,10,5,,0.00,1,,220
2012-9-14,68,62,55,63,59,54,100,92,78,30.14,30.09,30.01,15,9,2,12,5,,0.00,8,Rain-Thunderstorm,307
2012-9-15,62,56,46,52,47,41,88,71,59,30.17,30.13,30.10,15,14,12,14,10,21,0.00,4,Rain,300
2012-9-16,62,48,33,46,40,34,100,65,42,30.16,30.08,30.00,15,15,12,9,5,,0.00,1,Fog,245
2012-9-17,77,62,46,59,53,46,100,69,39,30.00,29.94,29.89,15,12,5,16,5,23,0.00,4,,107
2012-9-18,66,62,57,64,59,54,100,96,82,29.75,29.54,29.37,15,6,2,20,7,28,0.00,8,Rain,98
2012-9-19,59,50,41,41,37,34,93,63,39,30.18,30.07,29.92,15,15,15,16,10,22,0.00,3,,287
2012-9-20,66,54,41,48,44,39,93,61,43,30.21,30.07,29.97,15,15,15,15,9,22,0.00,4,,136
2012-9-21,59,56,53,59,56,54,100,98,94,29.98,29.95,29.93,12,6,1,9,6,,0.00,8,Rain,102
2012-9-22,64,60,57,59,54,48,100,79,59,29.75,29.69,29.61,15,12,3,16,12,29,0.00,6,Rain,214
2012-9-23,59,52,44,43,40,37,87,66,45,30.06,29.97,29.91,15,15,15,22,13,28,0.00,3,,282
2012-9-24,60,46,33,46,40,34,100,67,45,30.10,30.01,29.93,15,8,0,20,5,29,0.00,6,Fog,215
2012-9-25,66,57,48,52,49,46,94,68,56,29.94,29.92,29.88,15,15,12,15,8,22,0.00,3,,219
2012-9-26,68,60,46,57,52,43,87,75,63,30.04,29.93,29.88,15,15,15,12,6,21,0.00,6,,285
2012-9-27,57,49,41,43,39,37,93,66,48,30.30,30.27,30.24,15,15,15,9,6,,0.00,2,,343
2012-9-28,60,46,32,45,42,30,100,73,52,30.19,30.11,30.05,15,15,15,7,3,,0.00,3,,85
2012-9-29,64,50,35,48,45,36,100,71,45,30.07,30.02,29.96,15,15,15,7,3,,0.00,4,,85
2012-9-30,55,52,50,52,51,48,100,95,88,29.95,29.86,29.73,12,5,1,7,5,,0.00,8,Rain,351